Terminal Aerodrome Forecast
Issued by NWS Charleston, WV

Current Version | Previous Version | Graphics & Text | Print | Product List | Glossary On
Versions: 1 2 3 4 5 6 7 8 9 10 11 12 13 14 15 16 17 18 19 20 21 22 23 24 25 26
000
FTUS41 KRLX 300250 AAA
TAFHTS
TAF AMD
KHTS 300250Z 3003/3024 19007KT P6SM VCTS BKN045CB
     FM300600 21004KT 6SM BR BKN025
     FM300800 21004KT 4SM BR BKN025
     FM301300 22005KT P6SM BKN030
     FM301600 23006KT P6SM VCTS BKN040CB=

USA.gov is the U.S. government's official web portal to all federal, state and local government web resources and services.